Time;durP1;ratioP1;P1;durP2;ratioP2;P2;SDS_P1;SDS_P2;PMS_P1;PMS_P2;Temp;Humidity;BMP_temperature;BMP_pressure;BME280_temperature;BME280_humidity;BME280_pressure;Samples;Min_cycle;Max_cycle;Signal;HPM_P1;HPM_P2
2021/07/05 00:02:19;;;;;;;;;;;;;;;29.51;34.93;96995.69;5028738;28;1192;-50
2021/07/05 00:04:44;;;;;;;;;;;;;;;29.50;34.58;97001.97;5026317;28;1566;-50
2021/07/05 00:07:09;;;;;;;;;;;;;;;29.59;34.65;96993.88;5025221;28;1594;-51
2021/07/05 00:09:35;;;;;;;;;;;;;;;29.77;34.16;96998.25;4966318;28;1493;-50
2021/07/05 00:12:00;;;;;;;;;;;;;;;29.66;34.41;96999.38;5027662;28;1117;-51
2021/07/05 00:14:26;;;;;;;;;;;;;;;29.50;34.79;96997.50;5026967;28;1465;-51
2021/07/05 00:16:51;;;;;;;;;;;;;;;29.55;34.79;96997.88;5026798;28;1697;-50
2021/07/05 00:19:16;;;;;;;;;;;;;;;29.58;34.90;97002.84;5026838;28;1914;-50
2021/07/05 00:21:41;;;;;;;;;;;;;;;29.49;35.01;97003.78;5025714;28;1449;-51
2021/07/05 00:24:06;;;;;;;;;;;;;;;29.48;34.77;97010.09;5026472;28;1184;-52
2021/07/05 00:26:32;;;;;;;;;;;;;;;29.43;35.03;97002.56;5045453;23;1864;-49
2021/07/05 00:28:57;;;;;;;;;;;;;;;29.48;34.89;97002.13;5017337;28;2011;-50
2021/07/05 00:31:22;;;;;;;;;;;;;;;29.58;34.65;97002.84;5018665;28;1129;-49
2021/07/05 00:33:47;;;;;;;;;;;;;;;29.58;34.68;96999.34;5019133;28;1546;-49
2021/07/05 00:36:13;;;;;;;;;;;;;;;29.59;34.62;97001.03;5019786;28;1387;-49
2021/07/05 00:38:38;;;;;;;;;;;;;;;29.48;35.01;96999.47;5019754;28;1914;-50
2021/07/05 00:41:03;;;;;;;;;;;;;;;29.40;35.00;97010.88;5015220;28;1596;-49
2021/07/05 00:43:29;;;;;;;;;;;;;;;29.53;34.97;97009.63;5018904;28;1378;-49
2021/07/05 00:45:55;;;;;;;;;;;;;;;29.53;34.64;97005.13;5019296;28;1374;-49
2021/07/05 00:48:20;;;;;;;;;;;;;;;29.44;35.18;97012.22;5018463;28;1661;-49
2021/07/05 00:50:45;;;;;;;;;;;;;;;29.51;35.01;97009.78;5020185;28;1406;-49
2021/07/05 00:53:10;;;;;;;;;;;;;;;29.50;35.02;97013.44;5019345;28;1133;-48
2021/07/05 00:55:35;;;;;;;;;;;;;;;29.44;34.73;97012.22;5016752;28;1772;-49
2021/07/05 00:58:00;;;;;;;;;;;;;;;29.50;34.85;97018.75;5014213;28;1472;-49
2021/07/05 01:00:26;;;;;;;;;;;;;;;29.53;34.69;97020.25;5016308;28;1910;-49
2021/07/05 01:02:51;;;;;;;;;;;;;;;29.40;34.94;97024.16;5010499;28;1629;-47
2021/07/05 01:05:16;;;;;;;;;;;;;;;29.62;34.77;97022.78;5015875;28;1400;-49
2021/07/05 01:07:42;;;;;;;;;;;;;;;29.41;35.00;97019.69;5019636;28;1679;-50
2021/07/05 01:10:07;;;;;;;;;;;;;;;29.51;34.79;97022.25;5020192;28;1196;-50
2021/07/05 01:12:33;;;;;;;;;;;;;;;29.44;34.98;97016.69;5020234;28;1819;-49
2021/07/05 01:14:58;;;;;;;;;;;;;;;29.54;34.64;97012.13;5018045;28;1583;-49
2021/07/05 01:17:24;;;;;;;;;;;;;;;29.42;34.98;97013.38;5018708;28;1284;-49
2021/07/05 01:19:49;;;;;;;;;;;;;;;29.52;34.80;97000.81;5017523;28;1910;-49
2021/07/05 01:22:14;;;;;;;;;;;;;;;29.55;34.74;96997.88;5018793;28;1391;-50
2021/07/05 01:24:40;;;;;;;;;;;;;;;29.53;34.96;96994.50;5020552;28;1180;-49
2021/07/05 01:27:05;;;;;;;;;;;;;;;29.43;34.71;97001.75;5016236;28;1992;-50
2021/07/05 01:29:30;;;;;;;;;;;;;;;29.62;34.50;96993.53;5023732;28;1346;-49
2021/07/05 01:31:56;;;;;;;;;;;;;;;29.56;34.79;96999.53;5022531;28;1181;-50
2021/07/05 01:34:21;;;;;;;;;;;;;;;29.47;34.98;96984.50;5018307;28;1667;-50
2021/07/05 01:36:47;;;;;;;;;;;;;;;29.53;34.83;96988.38;5017241;28;1630;-49
2021/07/05 01:39:12;;;;;;;;;;;;;;;29.41;35.24;96993.94;5020355;28;1973;-49
2021/07/05 01:41:37;;;;;;;;;;;;;;;29.58;34.49;96986.91;5024052;28;1172;-49
2021/07/05 01:44:02;;;;;;;;;;;;;;;29.46;34.93;96990.78;5022021;28;1399;-49
2021/07/05 01:46:28;;;;;;;;;;;;;;;29.52;34.63;96982.22;5020219;28;1602;-48
2021/07/05 01:48:53;;;;;;;;;;;;;;;29.48;34.75;96976.38;5019389;28;1602;-49
2021/07/05 01:51:18;;;;;;;;;;;;;;;29.37;35.12;96979.28;5023576;28;1082;-49
2021/07/05 01:53:43;;;;;;;;;;;;;;;29.50;35.07;96986.03;5022404;28;1353;-49
2021/07/05 01:56:08;;;;;;;;;;;;;;;29.43;35.21;96991.94;5021595;28;1617;-50
2021/07/05 01:58:34;;;;;;;;;;;;;;;29.56;34.57;96998.69;5022723;28;1967;-49
2021/07/05 02:00:59;;;;;;;;;;;;;;;29.49;35.06;97001.13;5022955;28;1282;-50
2021/07/05 02:03:24;;;;;;;;;;;;;;;29.48;34.96;96991.50;5019649;28;1628;-50
2021/07/05 02:05:49;;;;;;;;;;;;;;;29.41;35.06;96993.94;5016713;28;1492;-49
2021/07/05 02:08:15;;;;;;;;;;;;;;;29.56;34.92;97002.19;5017106;28;1441;-50
2021/07/05 02:10:40;;;;;;;;;;;;;;;29.53;34.81;96996.34;5016373;28;1374;-50
2021/07/05 02:13:07;;;;;;;;;;;;;;;29.43;35.13;96999.09;5023710;28;1176;-49
2021/07/05 02:15:32;;;;;;;;;;;;;;;29.47;34.91;96995.13;5019478;28;1594;-48
2021/07/05 02:17:57;;;;;;;;;;;;;;;29.37;34.88;96987.28;5021245;28;1610;-50
2021/07/05 02:20:23;;;;;;;;;;;;;;;29.47;34.86;97000.47;5020832;28;1965;-50
2021/07/05 02:22:50;;;;;;;;;;;;;;;29.42;34.97;97008.06;5021086;28;1578;-49
2021/07/05 02:25:15;;;;;;;;;;;;;;;29.49;35.00;97003.78;5021081;28;1081;-49
2021/07/05 02:27:41;;;;;;;;;;;;;;;29.57;34.48;97003.00;5019704;28;1461;-50
2021/07/05 02:30:07;;;;;;;;;;;;;;;29.42;34.91;97013.38;5022308;28;1386;-50
2021/07/05 02:32:32;;;;;;;;;;;;;;;29.51;34.76;97007.13;5021823;28;1618;-50
2021/07/05 02:34:57;;;;;;;;;;;;;;;29.42;35.17;96992.13;5016418;28;1558;-49
2021/07/05 02:37:23;;;;;;;;;;;;;;;29.53;34.80;96993.69;5019591;28;1410;-49
2021/07/05 02:39:48;;;;;;;;;;;;;;;29.41;34.98;96993.94;5021075;28;1906;-49
2021/07/05 02:42:13;;;;;;;;;;;;;;;29.42;35.00;96992.13;5019520;28;1658;-49
2021/07/05 02:44:39;;;;;;;;;;;;;;;29.42;35.18;96986.81;5022443;28;1145;-50
2021/07/05 02:47:04;;;;;;;;;;;;;;;29.52;34.82;96986.72;5020096;28;1490;-49
2021/07/05 02:49:29;;;;;;;;;;;;;;;29.42;35.16;96992.13;5003942;28;1590;-49
2021/07/05 02:51:54;;;;;;;;;;;;;;;29.43;35.09;96999.91;5019101;28;2016;-48
2021/07/05 02:54:19;;;;;;;;;;;;;;;29.45;34.97;97003.25;5022308;28;1205;-49
2021/07/05 02:56:45;;;;;;;;;;;;;;;29.48;34.90;96996.81;5016026;28;1673;-49
2021/07/05 02:59:10;;;;;;;;;;;;;;;29.44;35.02;96992.78;5019392;28;1902;-50
2021/07/05 03:01:35;;;;;;;;;;;;;;;29.50;35.07;96992.19;5020357;28;1212;-50
2021/07/05 03:04:00;;;;;;;;;;;;;;;29.47;35.18;96995.13;5021637;28;1586;-49
2021/07/05 03:06:25;;;;;;;;;;;;;;;29.51;34.59;96999.16;5019525;28;1566;-49
2021/07/05 03:08:51;;;;;;;;;;;;;;;29.41;34.93;96996.59;5020752;28;1560;-49
2021/07/05 03:11:16;;;;;;;;;;;;;;;29.49;35.10;97001.13;5020430;28;1435;-50
2021/07/05 03:13:41;;;;;;;;;;;;;;;29.42;34.90;97003.56;5020140;28;1350;-49
2021/07/05 03:16:06;;;;;;;;;;;;;;;29.46;34.92;96998.75;5019687;28;1618;-48
2021/07/05 03:18:31;;;;;;;;;;;;;;;29.54;34.73;97005.97;5019275;28;1914;-50
2021/07/05 03:20:57;;;;;;;;;;;;;;;29.42;34.94;97016.84;5021039;28;1181;-48
2021/07/05 03:23:22;;;;;;;;;;;;;;;29.33;35.33;97012.50;5018887;28;1485;-50
2021/07/05 03:25:47;;;;;;;;;;;;;;;29.41;35.30;97011.72;5022151;28;1387;-49
2021/07/05 03:28:15;;;;;;;;;;;;;;;29.50;34.69;97009.94;5019884;28;1606;-49
2021/07/05 03:30:41;;;;;;;;;;;;;;;29.39;35.15;97011.03;5019595;28;1118;-50
2021/07/05 03:33:07;;;;;;;;;;;;;;;29.46;34.93;97020.84;5019766;28;1622;-49
2021/07/05 03:35:32;;;;;;;;;;;;;;;29.44;34.99;97022.00;5021664;28;1490;-50
2021/07/05 03:37:57;;;;;;;;;;;;;;;29.51;34.91;97011.63;5018849;28;1377;-48
2021/07/05 03:40:24;;;;;;;;;;;;;;;29.37;35.09;97016.47;5018979;28;1976;-49
2021/07/05 03:42:49;;;;;;;;;;;;;;;29.50;34.75;97010.78;5016913;28;1855;-50
2021/07/05 03:45:15;;;;;;;;;;;;;;;29.41;35.25;97019.69;5021420;28;1081;-49
2021/07/05 03:47:40;;;;;;;;;;;;;;;29.50;34.81;97025.91;5019981;28;1290;-50
2021/07/05 03:50:06;;;;;;;;;;;;;;;29.53;34.86;97014.94;5018082;28;1749;-48
2021/07/05 03:52:31;;;;;;;;;;;;;;;29.57;34.76;97016.31;5021334;28;1160;-50
2021/07/05 03:54:56;;;;;;;;;;;;;;;29.66;34.57;97028.63;5020534;28;1168;-49
2021/07/05 03:57:22;;;;;;;;;;;;;;;29.50;35.06;97029.38;5018798;28;1534;-48
2021/07/05 03:59:50;;;;;;;;;;;;;;;29.40;35.17;97007.38;5020725;28;2070;-50
2021/07/05 04:02:15;;;;;;;;;;;;;;;29.58;34.67;97010.00;5017508;28;1060;-49
2021/07/05 04:04:41;;;;;;;;;;;;;;;29.55;34.98;97012.97;5016467;28;1645;-49
2021/07/05 04:07:06;;;;;;;;;;;;;;;29.52;34.86;97018.59;5015259;28;1507;-49
2021/07/05 04:09:31;;;;;;;;;;;;;;;29.36;35.15;97025.44;5018523;28;1156;-50
2021/07/05 04:11:57;;;;;;;;;;;;;;;29.40;35.10;97028.63;5019047;28;1149;-50
2021/07/05 04:14:22;;;;;;;;;;;;;;;29.40;35.21;97016.19;5019634;28;1637;-49
2021/07/05 04:16:47;;;;;;;;;;;;;;;29.42;35.10;97008.88;5020978;28;1276;-50
2021/07/05 04:19:12;;;;;;;;;;;;;;;29.37;34.84;97011.19;5019664;28;1961;-50
2021/07/05 04:21:37;;;;;;;;;;;;;;;29.51;34.59;97015.09;5020804;28;1200;-50
2021/07/05 04:24:03;;;;;;;;;;;;;;;29.42;34.97;97005.41;5019716;28;1488;-48
2021/07/05 04:26:28;;;;;;;;;;;;;;;29.47;34.86;97009.25;5018444;28;1580;-49
2021/07/05 04:28:53;;;;;;;;;;;;;;;29.42;35.01;97008.88;5020058;28;1184;-49
2021/07/05 04:31:18;;;;;;;;;;;;;;;29.48;34.98;97004.78;5017993;28;1392;-49
2021/07/05 04:33:43;;;;;;;;;;;;;;;29.50;34.62;97008.13;5016484;28;2044;-49
2021/07/05 04:36:09;;;;;;;;;;;;;;;29.52;34.77;97011.44;5019446;28;1485;-50
2021/07/05 04:38:34;;;;;;;;;;;;;;;29.39;34.88;97019.84;5020003;28;1906;-49
2021/07/05 04:41:03;;;;;;;;;;;;;;;29.41;34.93;97023.16;5016861;28;1566;-49
2021/07/05 04:43:28;;;;;;;;;;;;;;;29.44;35.16;97027.31;5016115;28;1648;-50
2021/07/05 04:45:55;;;;;;;;;;;;;;;29.43;34.98;97037.13;5019596;28;1280;-48
2021/07/05 04:48:21;;;;;;;;;;;;;;;29.40;35.20;97021.50;5017418;28;1621;-48
2021/07/05 04:50:46;;;;;;;;;;;;;;;29.42;34.99;97026.66;5018979;28;1105;-49
2021/07/05 04:53:11;;;;;;;;;;;;;;;29.39;34.99;97030.47;5018249;28;1385;-48
2021/07/05 04:55:37;;;;;;;;;;;;;;;29.43;34.79;97026.50;5020138;28;1379;-49
2021/07/05 04:58:02;;;;;;;;;;;;;;;29.48;35.14;97031.34;5019394;28;1645;-49
2021/07/05 05:00:28;;;;;;;;;;;;;;;29.51;34.91;97016.94;5017716;28;1906;-49
2021/07/05 05:02:53;;;;;;;;;;;;;;;29.47;34.93;97024.38;5004822;28;1535;-49
2021/07/05 05:05:19;;;;;;;;;;;;;;;29.69;34.35;97015.84;5020525;28;1421;-50
2021/07/05 05:07:44;;;;;;;;;;;;;;;29.53;34.97;97015.78;5022325;28;1657;-49
2021/07/05 05:10:10;;;;;;;;;;;;;;;29.47;34.91;97025.19;5005803;28;1081;-49
2021/07/05 05:12:36;;;;;;;;;;;;;;;29.53;34.70;97031.72;5024520;28;1326;-49
2021/07/05 05:15:01;;;;;;;;;;;;;;;29.62;34.73;97025.44;5022017;28;1777;-50
2021/07/05 05:17:26;;;;;;;;;;;;;;;29.32;35.27;97029.44;5021958;28;1440;-50
2021/07/05 05:19:51;;;;;;;;;;;;;;;29.77;34.53;97027.50;5022536;28;1977;-50
2021/07/05 05:22:16;;;;;;;;;;;;;;;29.43;34.88;97030.97;5003361;28;1392;-48
2021/07/05 05:24:42;;;;;;;;;;;;;;;29.53;34.77;97031.72;5022897;28;1243;-50
2021/07/05 05:27:07;;;;;;;;;;;;;;;29.44;34.74;97040.59;5021888;28;1550;-48
2021/07/05 05:29:32;;;;;;;;;;;;;;;29.51;35.09;97039.00;5023595;28;1399;-50
2021/07/05 05:31:57;;;;;;;;;;;;;;;29.49;34.75;97038.31;5022301;28;1125;-48
2021/07/05 05:34:22;;;;;;;;;;;;;;;29.48;34.80;97034.81;5021039;28;1566;-50
2021/07/05 05:36:48;;;;;;;;;;;;;;;29.42;34.96;97032.78;5022223;28;1541;-50
2021/07/05 05:39:13;;;;;;;;;;;;;;;29.40;35.20;97028.63;5022686;28;1906;-50
2021/07/05 05:41:38;;;;;;;;;;;;;;;29.43;35.13;97028.31;5021231;28;1594;-49
2021/07/05 05:44:04;;;;;;;;;;;;;;;29.67;34.53;97020.47;5020513;28;1543;-48
2021/07/05 05:46:32;;;;;;;;;;;;;;;29.45;34.97;97028.97;5022130;28;1614;-50
2021/07/05 05:48:59;;;;;;;;;;;;;;;29.55;34.74;97024.44;5021909;28;1507;-49
2021/07/05 05:51:26;;;;;;;;;;;;;;;29.43;35.13;97029.16;5021677;28;1358;-50
2021/07/05 05:53:52;;;;;;;;;;;;;;;29.37;35.01;97032.44;5022725;28;1346;-50
2021/07/05 05:56:17;;;;;;;;;;;;;;;29.40;34.89;97042.75;5020946;28;1375;-49
2021/07/05 05:58:43;;;;;;;;;;;;;;;29.34;35.14;97051.34;5022561;28;1914;-49
2021/07/05 06:01:08;;;;;;;;;;;;;;;29.59;34.63;97047.03;5019028;28;1430;-50
2021/07/05 06:03:33;;;;;;;;;;;;;;;29.57;34.63;97046.34;5021079;28;1551;-50
2021/07/05 06:05:58;;;;;;;;;;;;;;;29.44;35.10;97049.41;5018674;28;1620;-49
2021/07/05 06:08:24;;;;;;;;;;;;;;;29.38;35.05;97054.50;5023854;28;1208;-50
2021/07/05 06:10:49;;;;;;;;;;;;;;;29.40;35.01;97055.22;5021917;28;1394;-50
2021/07/05 06:13:14;;;;;;;;;;;;;;;29.37;35.18;97064.31;5019708;28;1581;-49
2021/07/05 06:15:39;;;;;;;;;;;;;;;29.48;34.79;97057.91;5020607;28;1315;-49
2021/07/05 06:18:05;;;;;;;;;;;;;;;29.38;34.82;97063.31;5019603;28;1555;-50
2021/07/05 06:20:30;;;;;;;;;;;;;;;29.36;35.20;97059.16;5023031;28;1894;-49
2021/07/05 06:22:56;;;;;;;;;;;;;;;29.48;34.89;97060.56;5021176;28;1260;-48
2021/07/05 06:25:21;;;;;;;;;;;;;;;29.53;34.52;97058.28;5020886;28;1477;-49
2021/07/05 06:27:47;;;;;;;;;;;;;;;29.53;34.86;97060.94;5034485;23;3580;-50
2021/07/05 06:30:12;;;;;;;;;;;;;;;29.43;34.90;97068.16;5020532;28;1073;-51
2021/07/05 06:32:37;;;;;;;;;;;;;;;29.52;34.97;97059.28;5021884;28;1488;-51
2021/07/05 06:35:03;;;;;;;;;;;;;;;29.48;35.05;97072.03;5021140;28;1645;-51
2021/07/05 06:37:28;;;;;;;;;;;;;;;29.42;34.97;97067.34;5005166;28;1621;-51
2021/07/05 06:39:53;;;;;;;;;;;;;;;29.48;34.73;97071.19;5002168;28;1914;-51
2021/07/05 06:42:18;;;;;;;;;;;;;;;29.34;35.07;97077.06;5000792;28;1327;-51
2021/07/05 06:44:43;;;;;;;;;;;;;;;29.53;34.82;97079.53;4997274;28;1998;-51
2021/07/05 06:47:09;;;;;;;;;;;;;;;29.54;34.75;97088.34;4999152;28;1584;-51
2021/07/05 06:49:34;;;;;;;;;;;;;;;29.33;35.19;97086.03;5000951;28;1667;-49
2021/07/05 06:51:59;;;;;;;;;;;;;;;29.29;35.41;97092.63;5002463;28;1014;-51
2021/07/05 06:54:24;;;;;;;;;;;;;;;29.46;35.16;97086.44;5000821;28;1044;-51
2021/07/05 06:56:49;;;;;;;;;;;;;;;29.39;35.19;97083.59;5002099;28;1373;-51
2021/07/05 06:59:15;;;;;;;;;;;;;;;29.43;35.02;97082.28;4997425;28;2090;-51
2021/07/05 07:01:40;;;;;;;;;;;;;;;29.38;35.21;97073.09;5003099;28;1240;-50
2021/07/05 07:04:05;;;;;;;;;;;;;;;29.43;34.92;97074.31;4998308;28;1707;-51
2021/07/05 07:06:30;;;;;;;;;;;;;;;29.39;35.26;97072.13;4998625;28;1587;-51
2021/07/05 07:08:55;;;;;;;;;;;;;;;29.40;35.19;97069.31;5000790;28;1467;-50
2021/07/05 07:11:21;;;;;;;;;;;;;;;29.45;34.98;97069.66;5003061;28;1249;-52
2021/07/05 07:13:46;;;;;;;;;;;;;;;29.25;35.39;97068.22;4999947;28;1466;-51
2021/07/05 07:16:14;;;;;;;;;;;;;;;29.31;35.43;97064.09;4999630;28;1600;-51
2021/07/05 07:18:56;;;;;;;;;;;;;;;29.47;35.09;97067.69;4998979;28;1926;-51
2021/07/05 07:21:23;;;;;;;;;;;;;;;29.31;35.35;97067.59;5002101;28;1195;-50
2021/07/05 07:23:48;;;;;;;;;;;;;;;29.35;35.22;97062.81;5001149;28;1355;-51
2021/07/05 07:26:13;;;;;;;;;;;;;;;29.26;35.54;97064.56;5000824;28;1283;-50
2021/07/05 07:28:38;;;;;;;;;;;;;;;29.35;35.15;97060.16;4998815;28;1580;-50
2021/07/05 07:31:04;;;;;;;;;;;;;;;29.34;35.38;97061.13;5000901;28;1554;-50
2021/07/05 07:33:29;;;;;;;;;;;;;;;29.51;34.85;97054.97;5000784;28;1682;-51
2021/07/05 07:35:56;;;;;;;;;;;;;;;29.40;34.83;97056.03;5000174;28;1201;-50
2021/07/05 07:38:23;;;;;;;;;;;;;;;29.31;35.02;97058.78;5000805;28;1302;-51
2021/07/05 07:40:49;;;;;;;;;;;;;;;29.48;35.05;97061.41;5000194;28;2010;-51
2021/07/05 07:43:14;;;;;;;;;;;;;;;29.35;35.17;97060.97;5000573;28;1596;-51
2021/07/05 07:45:39;;;;;;;;;;;;;;;29.40;34.89;97065.84;5000930;28;1343;-51
2021/07/05 07:48:04;;;;;;;;;;;;;;;29.34;35.26;97055.81;4997942;28;1647;-50
2021/07/05 07:50:30;;;;;;;;;;;;;;;29.33;35.05;97056.81;5000491;28;1371;-51
2021/07/05 07:52:57;;;;;;;;;;;;;;;29.34;34.97;97059.31;5002330;28;1042;-51
2021/07/05 07:55:22;;;;;;;;;;;;;;;29.39;34.92;97053.53;4996326;28;1596;-49
2021/07/05 07:57:47;;;;;;;;;;;;;;;29.33;35.05;97043.53;4996596;28;1467;-50
2021/07/05 08:00:13;;;;;;;;;;;;;;;29.53;34.89;97047.66;4998964;28;1902;-48
2021/07/05 08:02:38;;;;;;;;;;;;;;;29.34;35.09;97034.56;5002984;28;1302;-51
2021/07/05 08:05:03;;;;;;;;;;;;;;;29.44;34.85;97027.31;4999389;28;1643;-49
2021/07/05 08:07:29;;;;;;;;;;;;;;;29.36;34.97;97029.94;4996032;28;1643;-49
2021/07/05 08:09:55;;;;;;;;;;;;;;;29.39;35.02;97026.97;4996615;28;1773;-51
2021/07/05 08:12:20;;;;;;;;;;;;;;;29.38;35.15;97041.22;5000208;28;1426;-51
2021/07/05 08:14:45;;;;;;;;;;;;;;;29.42;35.12;97042.59;4999819;28;1560;-51
2021/07/05 08:17:10;;;;;;;;;;;;;;;29.40;35.23;97044.59;4998923;28;1279;-50
2021/07/05 08:19:36;;;;;;;;;;;;;;;29.42;34.97;97042.59;4994995;28;1918;-50
2021/07/05 08:22:01;;;;;;;;;;;;;;;29.47;35.04;97035.00;4996737;28;1636;-51
2021/07/05 08:24:26;;;;;;;;;;;;;;;29.50;34.81;97041.84;4997807;28;1201;-50
2021/07/05 08:26:51;;;;;;;;;;;;;;;29.35;35.26;97033.59;4992506;28;1527;-51
2021/07/05 08:29:16;;;;;;;;;;;;;;;29.40;35.08;97026.81;4998644;28;1067;-48
2021/07/05 08:31:42;;;;;;;;;;;;;;;29.39;35.09;97032.28;4997766;28;1521;-51
2021/07/05 08:34:07;;;;;;;;;;;;;;;29.40;35.04;97031.28;4998413;28;1599;-49
2021/07/05 08:36:32;;;;;;;;;;;;;;;29.33;35.29;97030.25;4999755;28;1275;-51
2021/07/05 08:38:57;;;;;;;;;;;;;;;29.30;35.35;97035.88;4988980;28;3519;-50
2021/07/05 08:41:23;;;;;;;;;;;;;;;30.14;33.43;97030.66;4991463;28;2060;-50
2021/07/05 08:43:48;;;;;;;;;;;;;;;29.95;33.90;97028.25;4995394;28;10056;-59
2021/07/05 08:46:14;;;;;;;;;;;;;;;27.90;38.25;97018.88;4991967;28;10009;-52
2021/07/05 08:48:40;;;;;;;;;;;;;;;28.18;37.83;97014.34;4974787;28;2329;-55
2021/07/05 10:17:17;;;;;;;;;;;;;;;24.91;48.10;97005.34;5019313;27;9347;-48
2021/07/05 10:19:42;;;;;;;;;;;;;;;26.78;42.80;97002.06;5013302;28;2030;-49
2021/07/05 10:22:10;;;;;;;;;;;;;;;27.38;41.05;96997.34;5019015;28;2043;-49
2021/07/05 10:24:36;;;;;;;;;;;;;;;27.74;40.52;96995.66;5015848;28;2708;-49
2021/07/05 10:27:01;;;;;;;;;;;;;;;27.76;40.24;97001.66;5014049;28;2558;-49
2021/07/05 10:29:27;;;;;;;;;;;;;;;27.67;40.22;96997.25;5014792;28;2086;-49
2021/07/05 10:31:52;;;;;;;;;;;;;;;27.66;40.38;96999.03;5017454;28;2552;-49
2021/07/05 10:34:17;;;;;;;;;;;;;;;27.69;39.82;96988.16;5017293;28;2070;-49
2021/07/05 10:36:42;;;;;;;;;;;;;;;27.12;42.89;96997.16;5024506;28;11168;-54
2021/07/05 10:39:08;;;;;;;;;;;;;;;27.68;40.42;96991.78;5054308;28;2102;-51
2021/07/05 10:41:37;;;;;;;;;;;;;;;27.91;39.81;96994.03;5053937;28;2515;-51
2021/07/05 10:44:04;;;;;;;;;;;;;;;27.87;39.80;97003.25;5056577;28;2574;-52
2021/07/05 10:46:49;;;;;;;;;;;;;;;27.88;39.88;96995.13;5058445;28;2059;-52
2021/07/05 10:49:33;;;;;;;;;;;;;;;27.78;39.72;97000.50;5057742;28;2300;-52
2021/07/05 10:51:59;;;;;;;;;;;;;;;27.99;39.22;96997.59;5057184;28;2449;-51
2021/07/05 10:54:43;;;;;;;;;;;;;;;27.89;39.68;97001.31;5057288;28;3108;-52
2021/07/05 10:57:09;;;;;;;;;;;;;;;27.81;39.88;97010.81;5058070;28;2194;-50
2021/07/05 10:59:35;;;;;;;;;;;;;;;27.77;39.92;97011.25;5055167;28;2354;-50
2021/07/05 11:02:00;;;;;;;;;;;;;;;28.05;39.28;97001.47;5058072;28;2386;-52
2021/07/05 11:04:32;;;;;;;;;;;;;;;27.91;39.27;97010.75;5058415;28;2091;-51
2021/07/05 11:06:58;;;;;;;;;;;;;;;28.00;39.14;97001.09;5055478;28;2072;-51
2021/07/05 11:09:23;;;;;;;;;;;;;;;27.97;39.17;97009.34;5056172;28;2146;-51
2021/07/05 11:11:52;;;;;;;;;;;;;;;27.98;39.44;97013.66;5059191;28;2129;-51
2021/07/05 11:14:22;;;;;;;;;;;;;;;28.03;39.08;97019.31;5056585;28;2335;-52
2021/07/05 11:16:50;;;;;;;;;;;;;;;28.01;38.97;97005.41;5056364;28;2182;-52
2021/07/05 11:19:28;;;;;;;;;;;;;;;28.04;39.22;97008.59;5058460;28;2277;-52
2021/07/05 11:21:54;;;;;;;;;;;;;;;28.08;39.26;97006.47;5057973;28;2126;-49
2021/07/05 11:24:19;;;;;;;;;;;;;;;28.07;38.89;97005.63;5057370;28;2399;-51
2021/07/05 11:26:47;;;;;;;;;;;;;;;27.52;40.59;97013.59;5053751;28;2090;-55
2021/07/05 11:29:15;;;;;;;;;;;;;;;27.37;40.82;97006.25;5041760;28;2087;-53
2021/07/05 11:31:50;;;;;;;;;;;;;;;27.34;41.21;96994.16;5039101;28;3125;-52
2021/07/05 11:34:32;;;;;;;;;;;;;;;27.21;41.42;96998.94;5040450;28;2107;-52
2021/07/05 11:37:12;;;;;;;;;;;;;;;27.27;41.01;96998.38;5042109;28;2246;-53
2021/07/05 11:39:38;;;;;;;;;;;;;;;27.46;40.82;97002.72;5041717;28;2346;-54
2021/07/05 11:42:03;;;;;;;;;;;;;;;27.72;40.21;96990.50;5039769;28;2566;-52
2021/07/05 11:44:47;;;;;;;;;;;;;;;27.18;41.58;96996.59;5041893;28;2072;-53
2021/07/05 11:47:32;;;;;;;;;;;;;;;27.76;40.15;96986.59;5041954;28;2578;-54
2021/07/05 11:50:16;;;;;;;;;;;;;;;28.00;39.59;96985.19;5039762;28;2115;-51
2021/07/05 11:52:45;;;;;;;;;;;;;;;28.15;39.41;96990.81;5042642;28;2163;-53
2021/07/05 11:55:10;;;;;;;;;;;;;;;28.12;39.08;96991.91;5039969;28;2123;-53
2021/07/05 11:57:35;;;;;;;;;;;;;;;28.24;38.68;96981.94;5041569;28;2130;-53
2021/07/05 12:00:05;;;;;;;;;;;;;;;28.10;39.28;96994.72;5042272;28;2318;-53
2021/07/05 12:02:30;;;;;;;;;;;;;;;28.08;39.48;96993.22;5039780;28;2158;-52
2021/07/05 12:05:03;;;;;;;;;;;;;;;28.25;38.75;96994.19;5041827;28;2425;-54
2021/07/05 12:07:29;;;;;;;;;;;;;;;28.02;39.17;96984.03;5040807;28;2138;-51
2021/07/05 12:09:54;;;;;;;;;;;;;;;28.19;38.79;96995.63;5039718;28;2907;-51
2021/07/05 12:12:20;;;;;;;;;;;;;;;28.27;38.90;97000.19;5040835;28;2114;-52
2021/07/05 12:14:46;;;;;;;;;;;;;;;28.25;38.68;96996.84;5040540;28;2170;-53
2021/07/05 12:17:12;;;;;;;;;;;;;;;28.44;38.50;96986.13;5039933;28;2119;-53
2021/07/05 12:19:37;;;;;;;;;;;;;;;28.28;38.73;96989.44;5040297;28;2382;-54
2021/07/05 12:22:06;;;;;;;;;;;;;;;28.37;38.48;96987.72;5039990;28;2465;-54
2021/07/05 12:24:32;;;;;;;;;;;;;;;28.47;38.32;96988.47;5040319;28;2136;-53
2021/07/05 12:26:59;;;;;;;;;;;;;;;28.49;38.46;96988.31;5039154;28;2143;-53
2021/07/05 12:29:26;;;;;;;;;;;;;;;28.31;38.63;96988.34;5040427;28;2575;-53
2021/07/05 12:31:52;;;;;;;;;;;;;;;28.13;38.96;96980.34;5039483;28;2373;-53
2021/07/05 12:34:36;;;;;;;;;;;;;;;28.30;38.54;96982.19;5041781;28;2209;-54
2021/07/05 12:37:01;;;;;;;;;;;;;;;28.24;38.58;96976.63;5039323;28;2180;-53
2021/07/05 12:39:26;;;;;;;;;;;;;;;28.21;38.96;96987.56;5041805;28;2168;-53
2021/07/05 12:41:51;;;;;;;;;;;;;;;28.30;38.65;96989.31;5042088;28;2119;-54
2021/07/05 12:44:16;;;;;;;;;;;;;;;27.43;41.16;96995.09;5041321;28;2048;-53
2021/07/05 12:46:41;;;;;;;;;;;;;;;27.86;40.22;96991.81;5040305;28;3204;-53
2021/07/05 12:49:07;;;;;;;;;;;;;;;27.73;40.35;96994.00;5042287;28;2211;-55
2021/07/05 12:51:32;;;;;;;;;;;;;;;28.27;39.07;96994.88;5043097;28;2219;-50
2021/07/05 12:53:57;;;;;;;;;;;;;;;28.25;38.91;96989.72;5040146;28;2099;-52
2021/07/05 12:56:29;;;;;;;;;;;;;;;28.10;38.99;96992.06;5038230;28;2440;-50
2021/07/05 12:58:55;;;;;;;;;;;;;;;28.14;38.93;96989.13;5037266;28;2184;-53
2021/07/05 13:01:28;;;;;;;;;;;;;;;28.48;38.17;96991.97;5039397;28;2145;-52
2021/07/05 13:04:00;;;;;;;;;;;;;;;28.24;38.69;96987.25;5039143;28;2086;-53
2021/07/05 13:06:25;;;;;;;;;;;;;;;28.15;39.11;96990.81;5039002;28;2132;-52
2021/07/05 13:08:58;;;;;;;;;;;;;;;28.23;38.92;96994.34;5040253;28;2179;-51
2021/07/05 13:11:23;;;;;;;;;;;;;;;28.14;39.10;96989.13;5037546;28;2079;-52
2021/07/05 13:13:48;;;;;;;;;;;;;;;28.28;38.59;96994.75;5038175;28;2186;-51
2021/07/05 13:16:20;;;;;;;;;;;;;;;28.16;38.77;96997.75;5039252;28;2143;-51
2021/07/05 13:18:45;;;;;;;;;;;;;;;27.78;39.99;96992.56;5038575;28;2141;-54
2021/07/05 13:21:10;;;;;;;;;;;;;;;27.43;40.81;96987.97;5038697;28;2226;-57
2021/07/05 13:23:42;;;;;;;;;;;;;;;27.30;41.21;96982.19;5038654;28;3121;-52
2021/07/05 13:26:08;;;;;;;;;;;;;;;28.22;39.20;96971.50;5037197;28;2153;-51
2021/07/05 13:28:42;;;;;;;;;;;;;;;28.11;39.33;96979.66;5039363;28;2183;-51
2021/07/05 13:31:07;;;;;;;;;;;;;;;27.52;40.91;96979.16;5039305;28;2136;-53
2021/07/05 13:33:33;;;;;;;;;;;;;;;27.16;41.73;96975.53;5039603;28;2194;-52
2021/07/05 13:35:58;;;;;;;;;;;;;;;27.86;40.84;96975.91;5036762;28;2456;-52
2021/07/05 13:38:27;;;;;;;;;;;;;;;27.98;39.79;96966.78;5039717;28;2626;-51
2021/07/05 13:40:53;;;;;;;;;;;;;;;27.86;39.84;96969.78;5038793;28;2095;-52
2021/07/05 13:43:20;;;;;;;;;;;;;;;28.13;39.21;96968.91;5039201;28;2162;-51
2021/07/05 13:45:46;;;;;;;;;;;;;;;27.94;39.38;96967.22;5039892;28;2378;-51
2021/07/05 13:48:14;;;;;;;;;;;;;;;27.97;39.78;96977.53;5040584;28;2111;-52
2021/07/05 13:50:40;;;;;;;;;;;;;;;27.98;39.38;96971.25;5040749;28;2309;-51
2021/07/05 13:53:29;;;;;;;;;;;;;;;28.19;39.40;96976.25;5040136;28;2496;-51
2021/07/05 13:55:58;;;;;;;;;;;;;;;28.21;39.00;96979.59;5039037;28;2286;-51
2021/07/05 13:58:30;;;;;;;;;;;;;;;28.22;39.26;96981.25;5040044;28;2526;-51
2021/07/05 14:01:05;;;;;;;;;;;;;;;27.88;40.25;96981.06;5037775;28;2088;-51
2021/07/05 14:03:30;;;;;;;;;;;;;;;28.18;39.14;96979.88;5036995;28;2139;-52
2021/07/05 14:05:56;;;;;;;;;;;;;;;28.09;39.50;96979.81;5040691;28;2176;-52
2021/07/05 14:08:22;;;;;;;;;;;;;;;28.23;39.33;96977.63;5040959;28;2228;-53
2021/07/05 14:10:49;;;;;;;;;;;;;;;28.19;39.10;96990.31;5037349;28;2178;-54
2021/07/05 14:13:14;;;;;;;;;;;;;;;28.24;38.89;96987.25;5037004;28;2088;-55
2021/07/05 14:15:40;;;;;;;;;;;;;;;28.09;39.20;96981.63;5039341;28;2325;-55
2021/07/05 14:18:05;;;;;;;;;;;;;;;28.21;39.40;96990.19;5035490;28;2496;-55
2021/07/05 14:20:30;;;;;;;;;;;;;;;28.44;38.97;96990.59;5039695;28;2179;-53